createdAt,value
2019-03-01T00:01:58.246Z,99.90
2019-03-01T00:04:46.731Z,99.90
2019-03-01T00:07:52.721Z,99.90
2019-03-01T00:10:32.205Z,99.90
2019-03-01T00:13:39.548Z,99.90
2019-03-01T00:16:23.743Z,99.90
2019-03-01T00:19:34.205Z,99.90
2019-03-01T00:22:31.246Z,99.90
2019-03-01T00:25:41.102Z,99.90
2019-03-01T00:28:54.653Z,99.90
2019-03-01T00:32:22.118Z,99.90
2019-03-01T00:35:25.589Z,99.90
2019-03-01T00:38:56.916Z,99.90
2019-03-01T00:41:49.844Z,99.90
2019-03-01T00:44:53.684Z,99.90
2019-03-01T00:47:23.045Z,99.90
2019-03-01T00:49:52.455Z,99.70
2019-03-01T00:52:21.744Z,99.80
2019-03-01T00:54:51.270Z,99.90
2019-03-01T00:57:20.585Z,99.90
2019-03-01T00:59:49.875Z,99.90
2019-03-01T01:02:19.224Z,99.90
2019-03-01T01:04:48.601Z,99.90
2019-03-01T01:07:18.318Z,99.90
2019-03-01T01:09:47.646Z,99.90
2019-03-01T01:12:17.155Z,99.90
2019-03-01T01:14:46.814Z,99.90
2019-03-01T01:17:16.180Z,99.90
2019-03-01T01:19:45.453Z,99.90
2019-03-01T01:22:14.804Z,99.60
2019-03-01T01:24:44.087Z,99.70
2019-03-01T01:27:13.377Z,99.80
2019-03-01T01:29:42.681Z,99.80
2019-03-01T01:32:11.989Z,99.70
2019-03-01T01:34:41.378Z,99.40
2019-03-01T01:37:10.699Z,99.00
2019-03-01T01:39:40.473Z,99.50
2019-03-01T01:42:09.820Z,99.70
2019-03-01T01:44:39.095Z,99.60
2019-03-01T01:47:08.376Z,99.70
2019-03-01T01:49:38.014Z,99.70
2019-03-01T01:52:07.385Z,99.60
2019-03-01T01:54:36.669Z,99.50
2019-03-01T01:57:05.993Z,99.90
2019-03-01T01:59:35.336Z,99.90
2019-03-01T02:02:04.661Z,99.80
2019-03-01T02:04:33.954Z,99.40
2019-03-01T02:07:03.293Z,99.00
2019-03-01T02:09:32.597Z,98.80
2019-03-01T02:12:01.875Z,98.70
2019-03-01T02:14:31.190Z,98.60
2019-03-01T02:17:00.500Z,98.50
2019-03-01T02:19:30.166Z,98.50
2019-03-01T02:21:59.446Z,98.70
2019-03-01T02:24:28.841Z,99.70
2019-03-01T02:27:26.210Z,99.90
2019-03-01T02:29:55.734Z,99.90
2019-03-01T02:32:40.341Z,99.70
2019-03-01T02:35:11.776Z,99.30
2019-03-01T02:37:41.457Z,99.10
2019-03-01T02:40:13.150Z,98.90
2019-03-01T02:42:42.519Z,99.50
2019-03-01T02:45:13.992Z,99.20
2019-03-01T02:47:43.278Z,99.60
2019-03-01T02:50:13.084Z,99.70
2019-03-01T02:52:42.484Z,99.70
2019-03-01T02:55:12.593Z,99.90
2019-03-01T02:57:42.047Z,99.90
2019-03-01T03:00:30.506Z,99.90
2019-03-01T03:02:59.841Z,99.90
2019-03-01T03:05:29.216Z,99.90
2019-03-01T03:08:03.342Z,99.90
2019-03-01T03:10:32.744Z,99.70
2019-03-01T03:13:04.423Z,99.50
2019-03-01T03:15:38.952Z,99.40
2019-03-01T03:18:08.372Z,99.20
2019-03-01T03:20:37.711Z,99.40
2019-03-01T03:23:07.023Z,99.30
2019-03-01T03:25:36.339Z,99.30
2019-03-01T03:28:05.731Z,99.20
2019-03-01T03:30:35.167Z,99.10
2019-03-01T03:33:04.632Z,99.10
2019-03-01T03:35:34.014Z,99.30
2019-03-01T03:38:03.428Z,99.40
2019-03-01T03:40:32.847Z,99.60
2019-03-01T03:43:02.412Z,99.90
2019-03-01T03:45:31.851Z,99.90
2019-03-01T03:48:01.173Z,99.90
2019-03-01T03:50:30.672Z,99.90
2019-03-01T03:53:00.026Z,99.90
2019-03-01T03:55:29.499Z,99.90
2019-03-01T03:57:59.100Z,99.90
2019-03-01T04:00:28.500Z,99.90
2019-03-01T04:02:57.813Z,99.90
2019-03-01T04:05:28.728Z,99.90
2019-03-01T04:07:58.143Z,99.90
2019-03-01T04:10:27.523Z,99.90
2019-03-01T04:12:56.958Z,99.90
2019-03-01T04:15:26.506Z,99.90
2019-03-01T04:17:55.824Z,99.90
2019-03-01T04:20:25.165Z,99.90
2019-03-01T04:22:54.498Z,99.90
2019-03-01T04:25:23.870Z,99.90
2019-03-01T04:27:53.541Z,99.90
2019-03-01T04:30:23.023Z,99.90
2019-03-01T04:32:52.342Z,99.90
2019-03-01T04:35:23.381Z,99.90
2019-03-01T04:37:52.704Z,99.90
2019-03-01T04:40:22.058Z,99.90
2019-03-01T04:42:51.468Z,99.90
2019-03-01T04:45:20.919Z,99.90
2019-03-01T04:47:50.259Z,99.90
2019-03-01T04:50:19.579Z,99.90
2019-03-01T04:52:48.958Z,99.90
2019-03-01T04:55:23.510Z,99.90
2019-03-01T04:57:52.880Z,99.90
2019-03-01T05:00:23.473Z,99.90
2019-03-01T05:02:53.123Z,99.90
2019-03-01T05:05:22.446Z,99.90
2019-03-01T05:07:51.827Z,99.90
2019-03-01T05:10:21.251Z,99.90
2019-03-01T05:12:50.932Z,99.90
2019-03-01T05:15:21.628Z,99.90
2019-03-01T05:17:51.007Z,99.90
2019-03-01T05:20:20.474Z,99.90
2019-03-01T05:22:49.841Z,99.90
2019-03-01T05:25:19.191Z,99.90
2019-03-01T05:27:48.935Z,99.90
2019-03-01T05:30:18.456Z,99.90
2019-03-01T05:32:47.770Z,99.90
2019-03-01T05:35:17.119Z,99.90
2019-03-01T05:37:46.454Z,99.90
2019-03-01T05:40:15.783Z,99.90
2019-03-01T05:42:45.125Z,99.90
2019-03-01T05:45:17.233Z,99.90
2019-03-01T05:47:46.815Z,99.90
2019-03-01T05:50:16.268Z,99.90
2019-03-01T05:52:45.647Z,99.90
2019-03-01T05:55:15.105Z,99.90
2019-03-01T05:58:20.451Z,99.90
2019-03-01T06:00:49.951Z,99.90
2019-03-01T06:03:57.492Z,99.90
2019-03-01T06:06:43.163Z,99.90
2019-03-01T06:09:52.391Z,99.90
2019-03-01T06:12:47.927Z,99.90
2019-03-01T06:15:54.779Z,99.90
2019-03-01T06:18:57.593Z,99.90
2019-03-01T06:22:10.675Z,99.90
2019-03-01T06:25:25.003Z,99.90
2019-03-01T06:28:30.380Z,99.90
2019-03-01T06:31:40.540Z,99.90
2019-03-01T06:34:55.549Z,99.90
2019-03-01T06:37:53.912Z,99.90
2019-03-01T06:40:54.099Z,99.90
2019-03-01T06:44:10.323Z,99.90
2019-03-01T06:47:18.544Z,99.90
2019-03-01T06:49:54.246Z,99.90
2019-03-01T06:52:25.114Z,99.90
2019-03-01T06:54:54.447Z,99.90
2019-03-01T06:57:23.840Z,99.90
2019-03-01T06:59:53.186Z,99.90
2019-03-01T07:02:27.802Z,99.90
2019-03-01T07:04:57.144Z,99.90
2019-03-01T07:07:26.540Z,99.90
2019-03-01T07:09:55.883Z,99.90
2019-03-01T07:12:25.574Z,99.90
2019-03-01T07:14:54.946Z,99.90
2019-03-01T07:17:24.343Z,99.90
2019-03-01T07:19:53.796Z,99.90
2019-03-01T07:22:23.132Z,99.90
2019-03-01T07:24:52.487Z,99.90
2019-03-01T07:27:21.883Z,99.90
2019-03-01T07:29:51.327Z,99.90
2019-03-01T07:32:20.763Z,99.90
2019-03-01T07:34:50.179Z,99.90
2019-03-01T07:37:21.790Z,99.90
2019-03-01T07:39:52.564Z,99.90
2019-03-01T07:42:21.916Z,99.90
2019-03-01T07:44:51.326Z,99.90
2019-03-01T07:47:20.707Z,99.90
2019-03-01T07:49:52.327Z,99.90
2019-03-01T07:52:21.697Z,99.90
2019-03-01T07:54:52.912Z,99.90
2019-03-01T07:57:22.331Z,99.90
2019-03-01T07:59:51.897Z,99.90
2019-03-01T08:02:21.264Z,99.90
2019-03-01T08:04:50.660Z,99.90
2019-03-01T08:07:20.493Z,99.90
2019-03-01T08:09:51.434Z,99.90
2019-03-01T08:12:20.866Z,99.90
2019-03-01T08:14:50.180Z,99.90
2019-03-01T08:17:19.563Z,99.90
2019-03-01T08:19:48.976Z,99.90
2019-03-01T08:22:20.908Z,99.90
2019-03-01T08:24:49.395Z,99.90
2019-03-01T08:27:18.738Z,99.90
2019-03-01T08:29:48.164Z,99.90
2019-03-01T08:32:17.637Z,99.90
2019-03-01T08:34:49.867Z,99.90
2019-03-01T08:37:18.493Z,99.90
2019-03-01T08:39:49.665Z,99.90
2019-03-01T08:42:19.019Z,99.90
2019-03-01T08:44:48.419Z,99.90
2019-03-01T08:47:23.552Z,99.90
2019-03-01T08:49:48.894Z,99.90
2019-03-01T08:52:18.763Z,99.90
2019-03-01T08:54:48.183Z,99.90
2019-03-01T08:57:17.673Z,99.90
2019-03-01T08:59:47.109Z,99.90
2019-03-01T09:02:19.463Z,99.90
2019-03-01T09:04:51.229Z,99.90
2019-03-01T09:07:20.215Z,99.90
2019-03-01T09:09:53.685Z,99.90
2019-03-01T09:12:22.323Z,99.90
2019-03-01T09:14:51.820Z,99.90
2019-03-01T09:17:21.232Z,99.90
2019-03-01T09:19:50.772Z,99.90
2019-03-01T09:22:20.130Z,99.90
2019-03-01T09:24:52.575Z,99.90
2019-03-01T09:27:22.756Z,99.90
2019-03-01T09:29:52.367Z,99.90
2019-03-01T09:32:22.127Z,99.90
2019-03-01T09:34:54.791Z,99.90
2019-03-01T09:37:24.223Z,99.90
2019-03-01T09:40:05.286Z,99.90
2019-03-01T09:42:27.743Z,99.90
2019-03-01T09:44:57.079Z,99.90
2019-03-01T09:47:26.531Z,99.90
2019-03-01T09:49:56.552Z,99.90
2019-03-01T09:52:26.918Z,99.90
2019-03-01T09:54:56.333Z,99.90
2019-03-01T09:57:25.675Z,99.90
2019-03-01T09:59:55.079Z,99.90
2019-03-01T10:02:24.491Z,99.90
2019-03-01T10:04:53.950Z,99.90
2019-03-01T10:07:23.380Z,99.90
2019-03-01T10:09:52.768Z,99.90
2019-03-01T10:12:22.218Z,99.90
2019-03-01T10:14:51.678Z,99.90
2019-03-01T10:17:21.128Z,99.90
2019-03-01T10:19:50.603Z,99.90
2019-03-01T10:22:19.953Z,99.90
2019-03-01T10:24:49.486Z,99.90
2019-03-01T10:27:19.196Z,99.90
2019-03-01T10:29:48.563Z,99.90
2019-03-01T10:32:17.927Z,99.90
2019-03-01T10:34:47.267Z,99.90
2019-03-01T10:37:17.015Z,99.90
2019-03-01T10:39:52.798Z,99.90
2019-03-01T10:42:17.521Z,99.90
2019-03-01T10:44:47.064Z,99.90
2019-03-01T10:47:17.985Z,99.90
2019-03-01T10:49:47.603Z,99.90
2019-03-01T10:52:17.226Z,99.90
2019-03-01T10:54:46.919Z,99.90
2019-03-01T10:57:16.514Z,99.90
2019-03-01T10:59:46.222Z,99.90
2019-03-01T11:02:16.060Z,99.90
2019-03-01T11:04:45.546Z,99.90
2019-03-01T11:07:15.488Z,99.90
2019-03-01T11:09:45.390Z,99.90
2019-03-01T11:12:14.977Z,99.90
2019-03-01T11:14:44.661Z,99.90
2019-03-01T11:17:14.308Z,99.90
2019-03-01T11:19:43.958Z,99.90
2019-03-01T11:22:13.572Z,99.90
2019-03-01T11:24:42.979Z,99.90
2019-03-01T11:27:13.136Z,99.90
2019-03-01T11:29:42.782Z,99.90
2019-03-01T11:32:12.127Z,99.90
2019-03-01T11:34:41.451Z,99.90
2019-03-01T11:37:10.813Z,99.90
2019-03-01T11:39:40.213Z,99.90
2019-03-01T11:42:11.323Z,99.90
2019-03-01T11:44:40.715Z,99.90
2019-03-01T11:47:10.131Z,99.90
2019-03-01T11:49:39.535Z,99.90
2019-03-01T11:52:08.923Z,99.90
2019-03-01T11:54:38.301Z,99.90
2019-03-01T11:57:07.733Z,99.90
2019-03-01T11:59:37.162Z,99.90
2019-03-01T12:02:06.490Z,99.90
2019-03-01T12:04:35.933Z,99.90
2019-03-01T12:07:05.264Z,99.90
2019-03-01T12:09:34.711Z,99.90
2019-03-01T12:12:04.329Z,99.90
2019-03-01T12:14:33.718Z,99.90
2019-03-01T12:17:03.467Z,99.90
2019-03-01T12:19:32.848Z,99.90
2019-03-01T12:22:02.179Z,99.90
2019-03-01T12:24:31.553Z,99.90
2019-03-01T12:27:00.951Z,99.90
2019-03-01T12:29:30.311Z,99.90
2019-03-01T12:31:59.676Z,99.90
2019-03-01T12:34:29.093Z,99.90
2019-03-01T12:36:58.460Z,99.90
2019-03-01T12:39:28.727Z,99.90
2019-03-01T12:41:58.075Z,99.90
2019-03-01T12:44:27.424Z,99.90
2019-03-01T12:46:56.775Z,99.90
2019-03-01T12:49:26.138Z,99.90
2019-03-01T12:51:55.465Z,99.90
2019-03-01T12:54:24.823Z,99.90
2019-03-01T12:56:54.177Z,99.90
2019-03-01T12:59:23.884Z,99.90
2019-03-01T13:01:53.258Z,99.90
2019-03-01T13:04:22.572Z,99.90
2019-03-01T13:06:51.931Z,99.90
2019-03-01T13:09:23.409Z,99.90
2019-03-01T13:11:52.429Z,99.90
2019-03-01T13:14:21.865Z,99.90
2019-03-01T13:16:51.289Z,99.90
2019-03-01T13:19:23.339Z,99.90
2019-03-01T13:21:52.095Z,99.90
2019-03-01T13:24:21.487Z,99.90
2019-03-01T13:26:50.884Z,99.90
2019-03-01T13:29:22.299Z,99.90
2019-03-01T13:31:51.414Z,99.90
2019-03-01T13:34:20.762Z,99.90
2019-03-01T13:36:50.212Z,99.90
2019-03-01T13:39:20.731Z,99.90
2019-03-01T13:41:50.232Z,99.90
2019-03-01T13:44:19.858Z,99.90
2019-03-01T13:46:49.231Z,99.90
2019-03-01T13:49:18.563Z,99.90
2019-03-01T13:51:52.955Z,99.90
2019-03-01T13:54:21.556Z,99.90
2019-03-01T13:56:50.955Z,99.90
2019-03-01T13:59:20.274Z,99.90
2019-03-01T14:01:49.875Z,99.40
2019-03-01T14:04:19.350Z,99.10
2019-03-01T14:06:48.998Z,98.50
2019-03-01T14:09:18.720Z,98.30
2019-03-01T14:11:48.071Z,97.90
2019-03-01T14:14:17.415Z,98.20
2019-03-01T14:16:46.753Z,98.30
2019-03-01T14:19:16.195Z,98.40
2019-03-01T14:21:45.527Z,97.60
2019-03-01T14:24:14.895Z,97.10
2019-03-01T14:26:44.327Z,96.30
2019-03-01T14:29:16.100Z,96.80
2019-03-01T14:31:44.924Z,96.60
2019-03-01T14:34:14.311Z,96.60
2019-03-01T14:36:43.953Z,95.90
2019-03-01T14:39:17.962Z,95.60
2019-03-01T14:41:47.346Z,95.50
2019-03-01T14:44:16.742Z,95.50
2019-03-01T14:46:46.846Z,95.30
2019-03-01T14:49:18.448Z,95.00
2019-03-01T14:51:47.679Z,94.80
2019-03-01T14:54:17.445Z,94.60
2019-03-01T14:56:53.551Z,94.60
2019-03-01T14:59:27.192Z,94.50
2019-03-01T15:02:21.752Z,94.50
2019-03-01T15:04:51.137Z,93.60
2019-03-01T15:07:20.459Z,93.70
2019-03-01T15:09:53.203Z,93.70
2019-03-01T15:12:21.351Z,93.60
2019-03-01T15:14:50.897Z,93.60
2019-03-01T15:17:21.871Z,93.50
2019-03-01T15:19:51.551Z,93.40
2019-03-01T15:22:20.878Z,93.70
2019-03-01T15:24:50.487Z,94.00
2019-03-01T15:27:19.887Z,93.70
2019-03-01T15:29:49.322Z,93.60
2019-03-01T15:32:18.743Z,93.20
2019-03-01T15:34:48.341Z,93.20
2019-03-01T15:37:17.702Z,93.10
2019-03-01T15:39:47.068Z,93.10
2019-03-01T15:42:17.632Z,93.20
2019-03-01T15:44:47.919Z,93.10
2019-03-01T15:47:17.249Z,93.10
2019-03-01T15:49:48.095Z,93.30
2019-03-01T15:52:18.484Z,93.50
2019-03-01T15:54:48.131Z,92.70
2019-03-01T15:57:18.885Z,92.60
2019-03-01T15:59:48.918Z,92.40
2019-03-01T16:02:18.345Z,92.00
2019-03-01T16:04:47.678Z,92.20
2019-03-01T16:07:17.015Z,92.20
2019-03-01T16:09:46.392Z,92.20
2019-03-01T16:12:16.018Z,92.10
2019-03-01T16:14:45.324Z,91.90
2019-03-01T16:17:14.695Z,91.50
2019-03-01T16:19:46.929Z,91.50
2019-03-01T16:22:15.425Z,91.90
2019-03-01T16:24:46.194Z,91.70
2019-03-01T16:27:15.548Z,91.70
2019-03-01T16:29:44.972Z,91.70
2019-03-01T16:32:14.604Z,91.50
2019-03-01T16:34:43.891Z,91.20
2019-03-01T16:37:13.215Z,91.00
2019-03-01T16:39:42.601Z,91.40
2019-03-01T16:42:14.565Z,91.30
2019-03-01T16:44:44.784Z,91.00
2019-03-01T16:47:17.583Z,90.90
2019-03-01T16:49:46.913Z,91.00
2019-03-01T16:52:16.230Z,91.20
2019-03-01T16:54:51.473Z,91.20
2019-03-01T16:57:20.748Z,91.20
2019-03-01T16:59:50.253Z,90.90
2019-03-01T17:02:19.568Z,91.20
2019-03-01T17:04:48.967Z,91.10
2019-03-01T17:07:21.435Z,91.00
2019-03-01T17:09:54.895Z,90.90
2019-03-01T17:12:23.369Z,90.80
2019-03-01T17:14:52.801Z,91.00
2019-03-01T17:17:22.146Z,91.20
2019-03-01T17:19:51.483Z,91.30
2019-03-01T17:22:23.229Z,91.40
2019-03-01T17:24:52.102Z,91.40
2019-03-01T17:27:21.666Z,91.50
2019-03-01T17:29:50.974Z,91.70
2019-03-01T17:32:20.497Z,91.70
2019-03-01T17:34:52.296Z,91.80
2019-03-01T17:37:21.626Z,92.10
2019-03-01T17:39:53.150Z,92.10
2019-03-01T17:42:21.995Z,91.80
2019-03-01T17:44:51.792Z,91.80
2019-03-01T17:47:21.230Z,91.70
2019-03-01T17:49:50.687Z,91.60
2019-03-01T17:52:20.024Z,91.50
2019-03-01T17:54:49.327Z,91.60
2019-03-01T17:57:20.098Z,91.80
2019-03-01T17:59:49.551Z,91.50
2019-03-01T18:02:18.883Z,91.70
2019-03-01T18:04:48.221Z,92.10
2019-03-01T18:07:23.727Z,92.10
2019-03-01T18:09:51.914Z,92.20
2019-03-01T18:12:22.531Z,92.20
2019-03-01T18:14:51.866Z,92.00
2019-03-01T18:17:21.207Z,92.10
2019-03-01T18:19:50.558Z,92.40
2019-03-01T18:22:22.907Z,92.40
2019-03-01T18:24:51.031Z,92.60
2019-03-01T18:27:20.403Z,92.90
2019-03-01T18:29:50.048Z,93.10
2019-03-01T18:32:19.590Z,93.10
2019-03-01T18:34:49.051Z,93.30
2019-03-01T18:37:19.820Z,93.20
2019-03-01T18:39:49.570Z,93.70
2019-03-01T18:42:18.880Z,93.80
2019-03-01T18:44:48.188Z,93.80
2019-03-01T18:47:17.530Z,93.70
2019-03-01T18:49:46.828Z,93.50
2019-03-01T18:52:17.577Z,93.60
2019-03-01T18:54:47.331Z,94.00
2019-03-01T18:57:16.627Z,93.70
2019-03-01T18:59:46.017Z,93.90
2019-03-01T19:02:15.438Z,93.80
2019-03-01T19:04:44.868Z,93.80
2019-03-01T19:07:14.212Z,93.90
2019-03-01T19:09:43.592Z,94.10
2019-03-01T19:12:13.430Z,94.40
2019-03-01T19:14:42.919Z,94.60
2019-03-01T19:17:12.227Z,94.40
2019-03-01T19:19:43.212Z,94.70
2019-03-01T19:22:12.634Z,94.90
2019-03-01T19:24:46.765Z,95.10
2019-03-01T19:27:15.669Z,95.20
2019-03-01T19:29:45.680Z,95.00
2019-03-01T19:32:15.043Z,94.80
2019-03-01T19:34:44.359Z,95.10
2019-03-01T19:37:14.554Z,95.20
2019-03-01T19:39:46.918Z,95.00
2019-03-01T19:42:16.788Z,94.50
2019-03-01T19:44:46.116Z,94.40
2019-03-01T19:47:17.635Z,94.30
2019-03-01T19:49:48.702Z,94.70
2019-03-01T19:52:17.991Z,95.00
2019-03-01T19:54:47.415Z,95.00
2019-03-01T19:57:16.748Z,95.10
2019-03-01T19:59:46.561Z,94.90
2019-03-01T20:02:17.082Z,94.80
2019-03-01T20:04:46.450Z,94.50
2019-03-01T20:07:19.724Z,94.90
2019-03-01T20:09:47.228Z,95.00
2019-03-01T20:12:18.259Z,95.10
2019-03-01T20:14:47.577Z,95.20
2019-03-01T20:17:19.943Z,95.10
2019-03-01T20:19:49.243Z,94.60
2019-03-01T20:22:19.408Z,94.80
2019-03-01T20:24:48.850Z,94.60
2019-03-01T20:27:18.220Z,94.40
2019-03-01T20:29:49.498Z,94.80
2019-03-01T20:32:18.596Z,94.80
2019-03-01T20:34:47.987Z,94.50
2019-03-01T20:37:17.390Z,94.80
2019-03-01T20:39:47.417Z,94.80
2019-03-01T20:42:22.980Z,95.10
2019-03-01T20:44:50.260Z,94.90
2019-03-01T20:47:19.947Z,94.90
2019-03-01T20:49:49.295Z,95.00
2019-03-01T20:52:18.599Z,94.90
2019-03-01T20:54:48.237Z,94.90
2019-03-01T20:57:17.573Z,94.70
2019-03-01T20:59:50.521Z,94.70
2019-03-01T21:02:18.321Z,94.30
2019-03-01T21:04:53.261Z,94.20
2019-03-01T21:07:18.784Z,94.30
2019-03-01T21:09:48.897Z,94.40
2019-03-01T21:12:18.583Z,94.70
2019-03-01T21:14:47.947Z,94.70
2019-03-01T21:17:20.355Z,95.00
2019-03-01T21:19:48.415Z,94.90
2019-03-01T21:22:17.799Z,94.90
2019-03-01T21:24:47.169Z,94.90
2019-03-01T21:27:18.006Z,94.90
2019-03-01T21:29:47.619Z,95.00
2019-03-01T21:32:17.744Z,95.10
2019-03-01T21:34:47.116Z,95.30
2019-03-01T21:37:17.832Z,95.20
2019-03-01T21:39:47.588Z,95.10
2019-03-01T21:42:20.204Z,94.90
2019-03-01T21:44:48.022Z,95.10
2019-03-01T21:47:20.361Z,95.20
2019-03-01T21:49:49.762Z,95.10
2019-03-01T21:52:20.907Z,95.00
2019-03-01T21:54:51.944Z,95.10
2019-03-01T21:57:21.676Z,95.20
2019-03-01T21:59:52.509Z,95.20
2019-03-01T22:02:22.158Z,95.30
2019-03-01T22:04:51.486Z,95.40
2019-03-01T22:07:22.558Z,95.50
2019-03-01T22:09:51.906Z,95.30
2019-03-01T22:12:24.669Z,95.40
2019-03-01T22:14:52.520Z,95.20
2019-03-01T22:17:21.855Z,95.10
2019-03-01T22:19:52.259Z,95.10
2019-03-01T22:22:21.710Z,95.20
2019-03-01T22:24:51.021Z,95.20
2019-03-01T22:27:21.594Z,95.20
2019-03-01T22:29:53.071Z,95.20
2019-03-01T22:32:22.395Z,95.10
2019-03-01T22:34:52.059Z,95.10
2019-03-01T22:37:24.766Z,95.10
2019-03-01T22:39:52.452Z,95.20
2019-03-01T22:44:57.484Z,95.40
2019-03-01T22:48:11.791Z,95.30
2019-03-01T22:50:42.634Z,95.40
2019-03-01T22:53:12.891Z,95.40
2019-03-01T22:55:42.689Z,95.40
2019-03-01T22:58:12.189Z,95.50
2019-03-01T23:01:32.714Z,95.40
2019-03-01T23:04:05.962Z,95.50
2019-03-01T23:06:35.066Z,95.60
2019-03-01T23:09:10.837Z,95.70
2019-03-01T23:11:38.743Z,95.60
2019-03-01T23:14:07.853Z,95.60
2019-03-01T23:16:36.969Z,95.70
2019-03-01T23:19:06.360Z,95.70
2019-03-01T23:21:36.019Z,95.80
2019-03-01T23:24:06.192Z,95.60
2019-03-01T23:26:35.301Z,95.60
2019-03-01T23:29:04.388Z,95.70
2019-03-01T23:31:35.677Z,95.70
2019-03-01T23:34:07.088Z,95.70
2019-03-01T23:36:35.084Z,95.60
2019-03-01T23:39:04.916Z,95.60
2019-03-01T23:41:33.999Z,95.40
2019-03-01T23:44:06.554Z,95.30
2019-03-01T23:46:35.103Z,95.50
2019-03-01T23:49:06.466Z,95.20
2019-03-01T23:51:35.063Z,95.50
2019-03-01T23:54:05.747Z,95.30
2019-03-01T23:56:35.023Z,95.10
2019-03-01T23:59:04.462Z,95.40
